sensor_id;sensor_type;location;lat;lon;timestamp;temperature;humidity
9820;DHT22;4949;48.482;9.206;2023-09-19T00:03:43;17.70;92.20
9820;DHT22;4949;48.482;9.206;2023-09-19T00:08:43;17.70;91.90
9820;DHT22;4949;48.482;9.206;2023-09-19T00:13:47;17.60;92.10
9820;DHT22;4949;48.482;9.206;2023-09-19T00:18:50;17.60;92.00
9820;DHT22;4949;48.482;9.206;2023-09-19T00:23:53;17.60;92.40
9820;DHT22;4949;48.482;9.206;2023-09-19T00:28:54;17.60;92.50
9820;DHT22;4949;48.482;9.206;2023-09-19T00:33:57;17.60;92.10
9820;DHT22;4949;48.482;9.206;2023-09-19T00:39:03;17.60;92.80
9820;DHT22;4949;48.482;9.206;2023-09-19T00:44:08;17.60;92.30
9820;DHT22;4949;48.482;9.206;2023-09-19T00:49:10;17.60;92.60
9820;DHT22;4949;48.482;9.206;2023-09-19T00:54:13;17.50;93.60
9820;DHT22;4949;48.482;9.206;2023-09-19T00:59:20;17.50;94.00
9820;DHT22;4949;48.482;9.206;2023-09-19T01:04:25;17.50;94.50
9820;DHT22;4949;48.482;9.206;2023-09-19T01:09:28;17.40;94.20
9820;DHT22;4949;48.482;9.206;2023-09-19T01:14:44;17.40;94.10
9820;DHT22;4949;48.482;9.206;2023-09-19T01:31:10;17.50;93.80
9820;DHT22;4949;48.482;9.206;2023-09-19T01:36:11;17.50;94.20
9820;DHT22;4949;48.482;9.206;2023-09-19T01:41:17;17.40;94.50
9820;DHT22;4949;48.482;9.206;2023-09-19T01:46:27;17.40;94.50
9820;DHT22;4949;48.482;9.206;2023-09-19T01:52:05;17.40;94.00
9820;DHT22;4949;48.482;9.206;2023-09-19T01:57:28;17.50;94.00
9820;DHT22;4949;48.482;9.206;2023-09-19T02:02:30;17.50;94.10
9820;DHT22;4949;48.482;9.206;2023-09-19T02:07:31;17.50;94.20
9820;DHT22;4949;48.482;9.206;2023-09-19T02:12:33;17.40;94.30
9820;DHT22;4949;48.482;9.206;2023-09-19T02:17:35;17.50;94.40
9820;DHT22;4949;48.482;9.206;2023-09-19T02:22:36;17.40;94.20
9820;DHT22;4949;48.482;9.206;2023-09-19T02:27:38;17.40;94.10
9820;DHT22;4949;48.482;9.206;2023-09-19T02:32:42;17.30;94.40
9820;DHT22;4949;48.482;9.206;2023-09-19T02:37:43;17.30;94.90
9820;DHT22;4949;48.482;9.206;2023-09-19T02:42:46;17.20;95.30
9820;DHT22;4949;48.482;9.206;2023-09-19T02:47:49;17.10;95.20
9820;DHT22;4949;48.482;9.206;2023-09-19T02:52:55;17.10;95.00
9820;DHT22;4949;48.482;9.206;2023-09-19T02:57:56;17.10;94.70
9820;DHT22;4949;48.482;9.206;2023-09-19T03:02:57;17.10;94.60
9820;DHT22;4949;48.482;9.206;2023-09-19T03:07:58;17.10;94.30
9820;DHT22;4949;48.482;9.206;2023-09-19T03:13:04;17.10;94.10
9820;DHT22;4949;48.482;9.206;2023-09-19T03:18:06;17.10;94.30
9820;DHT22;4949;48.482;9.206;2023-09-19T03:23:09;17.20;94.00
9820;DHT22;4949;48.482;9.206;2023-09-19T03:28:10;17.30;93.90
9820;DHT22;4949;48.482;9.206;2023-09-19T03:33:12;17.30;94.20
9820;DHT22;4949;48.482;9.206;2023-09-19T03:38:13;17.30;94.50
9820;DHT22;4949;48.482;9.206;2023-09-19T03:43:13;17.20;94.70
9820;DHT22;4949;48.482;9.206;2023-09-19T03:48:16;17.20;94.80
9820;DHT22;4949;48.482;9.206;2023-09-19T03:53:22;17.20;95.40
9820;DHT22;4949;48.482;9.206;2023-09-19T03:58:23;17.20;95.50
9820;DHT22;4949;48.482;9.206;2023-09-19T04:03:24;17.20;95.40
9820;DHT22;4949;48.482;9.206;2023-09-19T04:08:34;17.20;95.40
9820;DHT22;4949;48.482;9.206;2023-09-19T04:13:40;17.20;95.80
9820;DHT22;4949;48.482;9.206;2023-09-19T04:18:41;17.10;96.00
9820;DHT22;4949;48.482;9.206;2023-09-19T04:23:42;17.00;96.20
9820;DHT22;4949;48.482;9.206;2023-09-19T04:28:43;17.00;96.20
9820;DHT22;4949;48.482;9.206;2023-09-19T04:33:44;17.00;96.20
9820;DHT22;4949;48.482;9.206;2023-09-19T04:38:45;16.90;96.40
9820;DHT22;4949;48.482;9.206;2023-09-19T04:43:45;17.00;95.80
9820;DHT22;4949;48.482;9.206;2023-09-19T04:48:54;16.90;95.80
9820;DHT22;4949;48.482;9.206;2023-09-19T04:53:55;16.90;95.90
9820;DHT22;4949;48.482;9.206;2023-09-19T04:58:56;16.90;95.90
9820;DHT22;4949;48.482;9.206;2023-09-19T05:03:59;16.80;95.80
9820;DHT22;4949;48.482;9.206;2023-09-19T05:09:02;16.80;95.40
9820;DHT22;4949;48.482;9.206;2023-09-19T05:14:05;16.80;95.30
9820;DHT22;4949;48.482;9.206;2023-09-19T05:19:06;16.80;94.90
9820;DHT22;4949;48.482;9.206;2023-09-19T05:24:08;16.90;94.00
9820;DHT22;4949;48.482;9.206;2023-09-19T05:29:13;17.00;93.70
9820;DHT22;4949;48.482;9.206;2023-09-19T05:34:13;17.10;93.50
9820;DHT22;4949;48.482;9.206;2023-09-19T05:39:14;17.10;93.30
9820;DHT22;4949;48.482;9.206;2023-09-19T05:44:15;17.10;93.40
9820;DHT22;4949;48.482;9.206;2023-09-19T05:49:16;17.10;93.50
9820;DHT22;4949;48.482;9.206;2023-09-19T05:54:17;17.20;93.10
9820;DHT22;4949;48.482;9.206;2023-09-19T05:59:20;17.20;92.90
9820;DHT22;4949;48.482;9.206;2023-09-19T06:04:24;17.20;93.30
9820;DHT22;4949;48.482;9.206;2023-09-19T06:09:28;17.20;93.30
9820;DHT22;4949;48.482;9.206;2023-09-19T06:14:32;17.20;93.70
9820;DHT22;4949;48.482;9.206;2023-09-19T06:19:35;17.20;93.80
9820;DHT22;4949;48.482;9.206;2023-09-19T06:24:35;17.00;94.50
9820;DHT22;4949;48.482;9.206;2023-09-19T06:29:36;17.10;94.90
9820;DHT22;4949;48.482;9.206;2023-09-19T06:34:37;17.10;94.90
9820;DHT22;4949;48.482;9.206;2023-09-19T06:39:43;17.10;95.20
9820;DHT22;4949;48.482;9.206;2023-09-19T06:44:46;17.10;95.20
9820;DHT22;4949;48.482;9.206;2023-09-19T06:49:47;17.10;95.30
9820;DHT22;4949;48.482;9.206;2023-09-19T06:54:49;17.20;94.80
9820;DHT22;4949;48.482;9.206;2023-09-19T06:59:50;17.30;94.80
9820;DHT22;4949;48.482;9.206;2023-09-19T07:04:53;17.30;94.60
9820;DHT22;4949;48.482;9.206;2023-09-19T07:09:54;17.30;94.60
9820;DHT22;4949;48.482;9.206;2023-09-19T07:14:55;17.30;94.40
9820;DHT22;4949;48.482;9.206;2023-09-19T07:19:58;17.30;94.40
9820;DHT22;4949;48.482;9.206;2023-09-19T07:24:59;17.30;94.40
9820;DHT22;4949;48.482;9.206;2023-09-19T07:30:00;17.40;94.60
9820;DHT22;4949;48.482;9.206;2023-09-19T07:35:01;17.50;94.30
9820;DHT22;4949;48.482;9.206;2023-09-19T07:40:05;17.50;94.50
9820;DHT22;4949;48.482;9.206;2023-09-19T07:45:12;17.50;94.60
9820;DHT22;4949;48.482;9.206;2023-09-19T07:50:19;17.60;94.40
9820;DHT22;4949;48.482;9.206;2023-09-19T07:55:20;17.70;94.10
9820;DHT22;4949;48.482;9.206;2023-09-19T08:00:24;17.70;93.50
9820;DHT22;4949;48.482;9.206;2023-09-19T08:05:25;17.70;93.60
9820;DHT22;4949;48.482;9.206;2023-09-19T08:10:26;17.70;92.90
9820;DHT22;4949;48.482;9.206;2023-09-19T08:15:31;17.80;92.90
9820;DHT22;4949;48.482;9.206;2023-09-19T08:20:31;17.90;92.90
9820;DHT22;4949;48.482;9.206;2023-09-19T08:25:33;18.00;92.20
9820;DHT22;4949;48.482;9.206;2023-09-19T08:30:38;18.00;91.50
9820;DHT22;4949;48.482;9.206;2023-09-19T08:35:43;17.90;90.80
9820;DHT22;4949;48.482;9.206;2023-09-19T08:40:46;17.90;90.00
9820;DHT22;4949;48.482;9.206;2023-09-19T08:45:47;17.90;90.00
9820;DHT22;4949;48.482;9.206;2023-09-19T08:51:07;17.80;89.10
9820;DHT22;4949;48.482;9.206;2023-09-19T08:56:17;17.90;90.00
9820;DHT22;4949;48.482;9.206;2023-09-19T09:01:21;18.00;89.50
9820;DHT22;4949;48.482;9.206;2023-09-19T09:06:26;18.10;90.00
9820;DHT22;4949;48.482;9.206;2023-09-19T09:11:31;18.30;90.10
9820;DHT22;4949;48.482;9.206;2023-09-19T09:16:34;18.40;89.80
9820;DHT22;4949;48.482;9.206;2023-09-19T09:21:35;18.40;90.00
9820;DHT22;4949;48.482;9.206;2023-09-19T09:31:39;18.60;87.90
9820;DHT22;4949;48.482;9.206;2023-09-19T09:36:44;18.70;86.10
9820;DHT22;4949;48.482;9.206;2023-09-19T09:41:48;18.70;87.70
9820;DHT22;4949;48.482;9.206;2023-09-19T09:46:49;18.80;87.70
9820;DHT22;4949;48.482;9.206;2023-09-19T09:52:03;18.90;86.90
9820;DHT22;4949;48.482;9.206;2023-09-19T09:57:19;19.00;84.80
9820;DHT22;4949;48.482;9.206;2023-09-19T10:02:30;19.10;82.20
9820;DHT22;4949;48.482;9.206;2023-09-19T10:07:41;19.20;80.10
9820;DHT22;4949;48.482;9.206;2023-09-19T10:12:54;19.10;80.00
9820;DHT22;4949;48.482;9.206;2023-09-19T10:17:58;19.40;79.80
9820;DHT22;4949;48.482;9.206;2023-09-19T10:23:05;19.60;78.00
9820;DHT22;4949;48.482;9.206;2023-09-19T10:28:15;19.70;77.90
9820;DHT22;4949;48.482;9.206;2023-09-19T10:33:18;19.70;74.60
9820;DHT22;4949;48.482;9.206;2023-09-19T10:38:25;19.80;75.30
9820;DHT22;4949;48.482;9.206;2023-09-19T10:43:33;20.00;75.50
9820;DHT22;4949;48.482;9.206;2023-09-19T10:48:37;20.20;75.10
9820;DHT22;4949;48.482;9.206;2023-09-19T10:53:46;20.30;73.70
9820;DHT22;4949;48.482;9.206;2023-09-19T10:58:49;20.20;73.90
9820;DHT22;4949;48.482;9.206;2023-09-19T11:04:28;19.90;73.50
9820;DHT22;4949;48.482;9.206;2023-09-19T11:09:53;19.80;74.40
9820;DHT22;4949;48.482;9.206;2023-09-19T11:14:55;20.00;75.60
9820;DHT22;4949;48.482;9.206;2023-09-19T11:30:30;20.50;70.10
9820;DHT22;4949;48.482;9.206;2023-09-19T11:36:15;20.80;69.50
9820;DHT22;4949;48.482;9.206;2023-09-19T11:46:33;21.20;66.40
9820;DHT22;4949;48.482;9.206;2023-09-19T11:51:41;21.40;66.90
9820;DHT22;4949;48.482;9.206;2023-09-19T11:56:52;21.70;66.00
9820;DHT22;4949;48.482;9.206;2023-09-19T12:01:55;21.80;64.30
9820;DHT22;4949;48.482;9.206;2023-09-19T12:07:11;21.80;65.20
9820;DHT22;4949;48.482;9.206;2023-09-19T12:12:20;22.20;64.20
9820;DHT22;4949;48.482;9.206;2023-09-19T12:17:40;22.60;63.20
9820;DHT22;4949;48.482;9.206;2023-09-19T12:22:46;22.90;60.80
9820;DHT22;4949;48.482;9.206;2023-09-19T12:27:48;22.80;59.90
9820;DHT22;4949;48.482;9.206;2023-09-19T12:32:57;22.60;61.70
9820;DHT22;4949;48.482;9.206;2023-09-19T12:37:59;22.50;62.40
9820;DHT22;4949;48.482;9.206;2023-09-19T12:43:02;22.70;63.40
9820;DHT22;4949;48.482;9.206;2023-09-19T12:48:27;23.40;62.00
9820;DHT22;4949;48.482;9.206;2023-09-19T12:53:35;23.80;59.70
9820;DHT22;4949;48.482;9.206;2023-09-19T13:04:23;23.70;56.80
9820;DHT22;4949;48.482;9.206;2023-09-19T13:09:29;24.00;57.40
9820;DHT22;4949;48.482;9.206;2023-09-19T13:14:34;23.90;55.00
9820;DHT22;4949;48.482;9.206;2023-09-19T13:24:58;23.90;54.20
9820;DHT22;4949;48.482;9.206;2023-09-19T13:29:59;23.70;55.00
9820;DHT22;4949;48.482;9.206;2023-09-19T13:35:00;23.50;54.60
9820;DHT22;4949;48.482;9.206;2023-09-19T13:40:01;23.60;54.70
9820;DHT22;4949;48.482;9.206;2023-09-19T13:45:02;23.70;54.80
9820;DHT22;4949;48.482;9.206;2023-09-19T13:50:05;23.90;53.80
9820;DHT22;4949;48.482;9.206;2023-09-19T13:55:09;24.00;53.50
9820;DHT22;4949;48.482;9.206;2023-09-19T14:00:16;24.00;53.90
9820;DHT22;4949;48.482;9.206;2023-09-19T14:05:18;24.20;54.90
9820;DHT22;4949;48.482;9.206;2023-09-19T14:10:19;24.30;54.80
9820;DHT22;4949;48.482;9.206;2023-09-19T14:15:20;24.50;54.70
9820;DHT22;4949;48.482;9.206;2023-09-19T14:20:20;24.80;55.00
9820;DHT22;4949;48.482;9.206;2023-09-19T14:25:22;25.10;54.60
9820;DHT22;4949;48.482;9.206;2023-09-19T14:30:23;24.90;54.70
9820;DHT22;4949;48.482;9.206;2023-09-19T14:35:24;24.90;54.60
9820;DHT22;4949;48.482;9.206;2023-09-19T14:40:29;24.90;53.20
9820;DHT22;4949;48.482;9.206;2023-09-19T14:45:32;24.80;53.50
9820;DHT22;4949;48.482;9.206;2023-09-19T14:50:35;24.80;53.20
9820;DHT22;4949;48.482;9.206;2023-09-19T14:55:37;24.90;53.60
9820;DHT22;4949;48.482;9.206;2023-09-19T15:00:41;25.20;52.20
9820;DHT22;4949;48.482;9.206;2023-09-19T15:05:45;25.10;51.40
9820;DHT22;4949;48.482;9.206;2023-09-19T15:10:52;25.20;51.50
9820;DHT22;4949;48.482;9.206;2023-09-19T15:15:53;25.50;50.60
9820;DHT22;4949;48.482;9.206;2023-09-19T15:20:54;25.60;50.40
9820;DHT22;4949;48.482;9.206;2023-09-19T15:25:57;25.40;50.10
9820;DHT22;4949;48.482;9.206;2023-09-19T15:31:05;25.50;50.30
9820;DHT22;4949;48.482;9.206;2023-09-19T15:36:14;25.50;49.70
9820;DHT22;4949;48.482;9.206;2023-09-19T15:41:15;25.70;49.80
9820;DHT22;4949;48.482;9.206;2023-09-19T15:46:16;25.80;49.50
9820;DHT22;4949;48.482;9.206;2023-09-19T15:51:22;25.80;49.60
9820;DHT22;4949;48.482;9.206;2023-09-19T15:56:26;25.80;48.40
9820;DHT22;4949;48.482;9.206;2023-09-19T16:01:27;25.60;49.40
9820;DHT22;4949;48.482;9.206;2023-09-19T16:06:29;25.70;49.00
9820;DHT22;4949;48.482;9.206;2023-09-19T16:11:35;25.70;48.50
9820;DHT22;4949;48.482;9.206;2023-09-19T16:16:38;25.60;48.90
9820;DHT22;4949;48.482;9.206;2023-09-19T16:21:39;25.60;49.30
9820;DHT22;4949;48.482;9.206;2023-09-19T16:26:40;25.80;49.30
9820;DHT22;4949;48.482;9.206;2023-09-19T16:31:43;25.60;48.50
9820;DHT22;4949;48.482;9.206;2023-09-19T16:36:46;25.80;48.10
9820;DHT22;4949;48.482;9.206;2023-09-19T16:41:50;25.70;48.40
9820;DHT22;4949;48.482;9.206;2023-09-19T16:46:51;25.70;48.70
9820;DHT22;4949;48.482;9.206;2023-09-19T16:51:55;25.60;48.70
9820;DHT22;4949;48.482;9.206;2023-09-19T16:56:56;25.40;49.80
9820;DHT22;4949;48.482;9.206;2023-09-19T17:01:58;25.10;51.10
9820;DHT22;4949;48.482;9.206;2023-09-19T17:06:59;24.80;52.10
9820;DHT22;4949;48.482;9.206;2023-09-19T17:12:03;24.70;53.10
9820;DHT22;4949;48.482;9.206;2023-09-19T17:17:04;24.40;53.10
9820;DHT22;4949;48.482;9.206;2023-09-19T17:22:04;24.20;52.80
9820;DHT22;4949;48.482;9.206;2023-09-19T17:27:07;23.80;54.00
9820;DHT22;4949;48.482;9.206;2023-09-19T17:32:08;23.40;54.70
9820;DHT22;4949;48.482;9.206;2023-09-19T17:37:10;23.20;54.60
9820;DHT22;4949;48.482;9.206;2023-09-19T17:42:11;22.90;55.40
9820;DHT22;4949;48.482;9.206;2023-09-19T17:47:14;22.50;56.50
9820;DHT22;4949;48.482;9.206;2023-09-19T17:52:17;22.20;57.80
9820;DHT22;4949;48.482;9.206;2023-09-19T17:57:22;22.00;59.00
9820;DHT22;4949;48.482;9.206;2023-09-19T18:02:27;21.80;59.10
9820;DHT22;4949;48.482;9.206;2023-09-19T18:07:28;21.60;60.00
9820;DHT22;4949;48.482;9.206;2023-09-19T18:12:31;21.40;62.30
9820;DHT22;4949;48.482;9.206;2023-09-19T18:17:32;21.40;61.80
9820;DHT22;4949;48.482;9.206;2023-09-19T18:22:32;21.30;62.70
9820;DHT22;4949;48.482;9.206;2023-09-19T18:27:34;21.30;61.60
9820;DHT22;4949;48.482;9.206;2023-09-19T18:32:38;21.10;62.40
9820;DHT22;4949;48.482;9.206;2023-09-19T18:37:40;21.20;60.70
9820;DHT22;4949;48.482;9.206;2023-09-19T18:42:42;21.20;60.20
9820;DHT22;4949;48.482;9.206;2023-09-19T18:47:45;21.00;60.10
9820;DHT22;4949;48.482;9.206;2023-09-19T18:52:47;20.90;60.10
9820;DHT22;4949;48.482;9.206;2023-09-19T18:57:47;20.80;60.50
9820;DHT22;4949;48.482;9.206;2023-09-19T19:02:48;20.70;60.60
9820;DHT22;4949;48.482;9.206;2023-09-19T19:07:49;20.50;63.60
9820;DHT22;4949;48.482;9.206;2023-09-19T19:12:53;20.30;63.40
9820;DHT22;4949;48.482;9.206;2023-09-19T19:17:53;19.80;65.30
9820;DHT22;4949;48.482;9.206;2023-09-19T19:22:54;19.90;65.90
9820;DHT22;4949;48.482;9.206;2023-09-19T19:27:55;19.80;66.80
9820;DHT22;4949;48.482;9.206;2023-09-19T19:32:56;19.60;67.80
9820;DHT22;4949;48.482;9.206;2023-09-19T19:37:59;19.50;68.70
9820;DHT22;4949;48.482;9.206;2023-09-19T19:43:03;19.30;70.00
9820;DHT22;4949;48.482;9.206;2023-09-19T19:48:07;19.20;71.10
9820;DHT22;4949;48.482;9.206;2023-09-19T19:53:09;19.10;72.20
9820;DHT22;4949;48.482;9.206;2023-09-19T19:58:13;19.00;73.20
9820;DHT22;4949;48.482;9.206;2023-09-19T20:03:19;18.90;73.80
9820;DHT22;4949;48.482;9.206;2023-09-19T20:08:20;18.80;73.80
9820;DHT22;4949;48.482;9.206;2023-09-19T20:13:24;18.70;74.40
9820;DHT22;4949;48.482;9.206;2023-09-19T20:18:25;18.60;74.90
9820;DHT22;4949;48.482;9.206;2023-09-19T20:23:26;18.50;76.40
9820;DHT22;4949;48.482;9.206;2023-09-19T20:28:30;18.40;77.40
9820;DHT22;4949;48.482;9.206;2023-09-19T20:33:31;18.20;78.50
9820;DHT22;4949;48.482;9.206;2023-09-19T20:38:32;18.10;78.80
9820;DHT22;4949;48.482;9.206;2023-09-19T20:43:35;18.00;79.60
9820;DHT22;4949;48.482;9.206;2023-09-19T20:48:40;17.90;79.60
9820;DHT22;4949;48.482;9.206;2023-09-19T20:53:45;17.80;80.20
9820;DHT22;4949;48.482;9.206;2023-09-19T20:58:48;17.70;80.10
9820;DHT22;4949;48.482;9.206;2023-09-19T21:03:48;17.60;80.50
9820;DHT22;4949;48.482;9.206;2023-09-19T21:08:49;17.60;81.10
9820;DHT22;4949;48.482;9.206;2023-09-19T21:13:52;17.50;82.20
9820;DHT22;4949;48.482;9.206;2023-09-19T21:18:53;17.30;82.60
9820;DHT22;4949;48.482;9.206;2023-09-19T21:23:54;17.20;82.90
9820;DHT22;4949;48.482;9.206;2023-09-19T21:28:55;17.10;83.40
9820;DHT22;4949;48.482;9.206;2023-09-19T21:33:58;17.10;83.30
9820;DHT22;4949;48.482;9.206;2023-09-19T21:38:59;17.00;83.60
9820;DHT22;4949;48.482;9.206;2023-09-19T21:44:03;16.90;83.70
9820;DHT22;4949;48.482;9.206;2023-09-19T21:49:07;16.80;84.00
9820;DHT22;4949;48.482;9.206;2023-09-19T21:54:07;16.90;84.20
9820;DHT22;4949;48.482;9.206;2023-09-19T21:59:09;16.80;84.00
9820;DHT22;4949;48.482;9.206;2023-09-19T22:04:09;16.80;83.50
9820;DHT22;4949;48.482;9.206;2023-09-19T22:09:10;16.80;83.50
9820;DHT22;4949;48.482;9.206;2023-09-19T22:14:13;16.90;83.60
9820;DHT22;4949;48.482;9.206;2023-09-19T22:19:14;16.80;84.20
9820;DHT22;4949;48.482;9.206;2023-09-19T22:24:16;16.80;83.20
9820;DHT22;4949;48.482;9.206;2023-09-19T22:29:20;16.80;82.90
9820;DHT22;4949;48.482;9.206;2023-09-19T22:34:24;16.80;82.60
9820;DHT22;4949;48.482;9.206;2023-09-19T22:39:27;16.80;84.10
9820;DHT22;4949;48.482;9.206;2023-09-19T22:44:29;16.60;84.60
9820;DHT22;4949;48.482;9.206;2023-09-19T22:49:32;16.60;85.00
9820;DHT22;4949;48.482;9.206;2023-09-19T22:54:37;16.60;84.90
9820;DHT22;4949;48.482;9.206;2023-09-19T22:59:41;16.50;85.30
9820;DHT22;4949;48.482;9.206;2023-09-19T23:04:43;16.40;86.00
9820;DHT22;4949;48.482;9.206;2023-09-19T23:09:46;16.30;86.00
9820;DHT22;4949;48.482;9.206;2023-09-19T23:14:47;16.30;86.50
9820;DHT22;4949;48.482;9.206;2023-09-19T23:19:50;16.20;86.50
9820;DHT22;4949;48.482;9.206;2023-09-19T23:24:55;16.10;87.20
9820;DHT22;4949;48.482;9.206;2023-09-19T23:30:15;16.10;87.50
9820;DHT22;4949;48.482;9.206;2023-09-19T23:35:18;16.00;87.50
9820;DHT22;4949;48.482;9.206;2023-09-19T23:40:23;16.00;87.10
9820;DHT22;4949;48.482;9.206;2023-09-19T23:45:27;15.90;87.00
9820;DHT22;4949;48.482;9.206;2023-09-19T23:50:30;15.90;87.40
9820;DHT22;4949;48.482;9.206;2023-09-19T23:55:34;15.90;87.30
